Ransom Canyon, Texas
Current Conditions -  °F | °C
As of 8:53 AM on Monday 22 Dec 2014 (Local Time) from KLBB Reporting Station
Scattered Clouds Scattered Clouds  
Wind Chill: 41°   Ceiling: Unl
Heat Index: 47°   Visibility: 10mi
Dew Point: 33°   Wind: 15mph
Humidity: 59%   Direction: 340°NNW
Pressure: 29.73"   Gusts: NA
Location:  33.53°N, 101.68°W
Report Text: KLBB 221453Z 34013KT 10SM SCT200 SCT260 08/01 A2973 RMK AO2 SLP046 T00830006 51024
Loading
Personal Weather Stations






























Interactive Weather Map New forecast layout! Learn more

10-Day Weather Forecast

Advertisements
Track Severe Weather on mobile